sensor_id;sensor_type;location;lat;lon;timestamp;temperature;humidity
9157;DHT22;4613;48.392;9.998;2022-08-21T00:00:14;16.80;99.90
9157;DHT22;4613;48.392;9.998;2022-08-21T00:02:50;17.10;99.90
9157;DHT22;4613;48.392;9.998;2022-08-21T00:05:22;16.90;99.90
9157;DHT22;4613;48.392;9.998;2022-08-21T00:07:54;17.20;99.90
9157;DHT22;4613;48.392;9.998;2022-08-21T00:10:26;17.10;99.90
9157;DHT22;4613;48.392;9.998;2022-08-21T00:12:57;17.10;99.90
9157;DHT22;4613;48.392;9.998;2022-08-21T00:15:29;17.10;99.90
9157;DHT22;4613;48.392;9.998;2022-08-21T00:18:01;16.80;99.90
9157;DHT22;4613;48.392;9.998;2022-08-21T00:20:33;16.90;99.90
9157;DHT22;4613;48.392;9.998;2022-08-21T00:23:04;17.00;99.90
9157;DHT22;4613;48.392;9.998;2022-08-21T00:25:36;17.20;99.90
9157;DHT22;4613;48.392;9.998;2022-08-21T00:28:07;16.60;99.90
9157;DHT22;4613;48.392;9.998;2022-08-21T00:30:39;16.80;99.90
9157;DHT22;4613;48.392;9.998;2022-08-21T00:33:11;17.10;99.90
9157;DHT22;4613;48.392;9.998;2022-08-21T00:35:43;16.80;99.90
9157;DHT22;4613;48.392;9.998;2022-08-21T00:38:14;16.70;99.90
9157;DHT22;4613;48.392;9.998;2022-08-21T00:40:53;16.70;99.90
9157;DHT22;4613;48.392;9.998;2022-08-21T00:43:30;16.60;99.90
9157;DHT22;4613;48.392;9.998;2022-08-21T00:46:03;16.80;99.90
9157;DHT22;4613;48.392;9.998;2022-08-21T00:48:35;17.00;99.90
9157;DHT22;4613;48.392;9.998;2022-08-21T00:51:19;16.80;99.90
9157;DHT22;4613;48.392;9.998;2022-08-21T00:53:56;16.30;99.90
9157;DHT22;4613;48.392;9.998;2022-08-21T00:56:28;16.20;99.90
9157;DHT22;4613;48.392;9.998;2022-08-21T00:59:00;16.20;99.90
9157;DHT22;4613;48.392;9.998;2022-08-21T01:01:32;16.50;99.90
9157;DHT22;4613;48.392;9.998;2022-08-21T01:04:03;16.00;99.90
9157;DHT22;4613;48.392;9.998;2022-08-21T01:06:34;15.90;99.90
9157;DHT22;4613;48.392;9.998;2022-08-21T01:09:05;16.20;99.90
9157;DHT22;4613;48.392;9.998;2022-08-21T01:11:36;16.30;99.90
9157;DHT22;4613;48.392;9.998;2022-08-21T01:14:09;16.40;99.90
9157;DHT22;4613;48.392;9.998;2022-08-21T01:16:45;16.20;99.90
9157;DHT22;4613;48.392;9.998;2022-08-21T01:19:18;16.40;99.90
9157;DHT22;4613;48.392;9.998;2022-08-21T01:21:51;16.40;99.90
9157;DHT22;4613;48.392;9.998;2022-08-21T01:24:22;16.80;99.90
9157;DHT22;4613;48.392;9.998;2022-08-21T01:26:54;16.60;99.90
9157;DHT22;4613;48.392;9.998;2022-08-21T01:29:49;16.50;99.90
9157;DHT22;4613;48.392;9.998;2022-08-21T01:32:22;16.50;99.90
9157;DHT22;4613;48.392;9.998;2022-08-21T01:34:53;16.70;99.90
9157;DHT22;4613;48.392;9.998;2022-08-21T01:37:24;16.30;99.90
9157;DHT22;4613;48.392;9.998;2022-08-21T01:39:55;16.60;99.90
9157;DHT22;4613;48.392;9.998;2022-08-21T01:42:26;16.20;99.90
9157;DHT22;4613;48.392;9.998;2022-08-21T01:44:58;15.90;99.90
9157;DHT22;4613;48.392;9.998;2022-08-21T01:47:29;15.90;99.90
9157;DHT22;4613;48.392;9.998;2022-08-21T01:50:00;15.90;99.90
9157;DHT22;4613;48.392;9.998;2022-08-21T01:52:32;16.40;99.90
9157;DHT22;4613;48.392;9.998;2022-08-21T01:55:05;16.40;99.90
9157;DHT22;4613;48.392;9.998;2022-08-21T01:57:37;16.30;99.90
9157;DHT22;4613;48.392;9.998;2022-08-21T02:00:10;16.30;99.90
9157;DHT22;4613;48.392;9.998;2022-08-21T02:02:44;15.80;99.90
9157;DHT22;4613;48.392;9.998;2022-08-21T02:05:15;16.00;99.90
9157;DHT22;4613;48.392;9.998;2022-08-21T02:07:49;16.00;99.90
9157;DHT22;4613;48.392;9.998;2022-08-21T02:10:29;16.00;99.90
9157;DHT22;4613;48.392;9.998;2022-08-21T02:13:00;16.70;99.90
9157;DHT22;4613;48.392;9.998;2022-08-21T02:15:31;16.70;99.90
9157;DHT22;4613;48.392;9.998;2022-08-21T02:18:05;16.40;99.90
9157;DHT22;4613;48.392;9.998;2022-08-21T02:20:40;16.50;99.90
9157;DHT22;4613;48.392;9.998;2022-08-21T02:23:11;16.60;99.90
9157;DHT22;4613;48.392;9.998;2022-08-21T02:25:43;16.20;99.90
9157;DHT22;4613;48.392;9.998;2022-08-21T02:28:14;16.50;99.90
9157;DHT22;4613;48.392;9.998;2022-08-21T02:30:47;16.40;99.90
9157;DHT22;4613;48.392;9.998;2022-08-21T02:33:18;16.60;99.90
9157;DHT22;4613;48.392;9.998;2022-08-21T02:35:49;16.00;99.90
9157;DHT22;4613;48.392;9.998;2022-08-21T02:38:27;16.20;99.90
9157;DHT22;4613;48.392;9.998;2022-08-21T02:40:59;16.00;99.90
9157;DHT22;4613;48.392;9.998;2022-08-21T02:43:30;16.40;99.90
9157;DHT22;4613;48.392;9.998;2022-08-21T02:46:03;16.00;99.90
9157;DHT22;4613;48.392;9.998;2022-08-21T02:48:34;15.50;99.90
9157;DHT22;4613;48.392;9.998;2022-08-21T02:51:17;15.90;99.90
9157;DHT22;4613;48.392;9.998;2022-08-21T02:53:49;15.90;99.90
9157;DHT22;4613;48.392;9.998;2022-08-21T02:56:21;15.90;99.90
9157;DHT22;4613;48.392;9.998;2022-08-21T02:58:52;15.70;99.90
9157;DHT22;4613;48.392;9.998;2022-08-21T03:01:23;15.80;99.90
9157;DHT22;4613;48.392;9.998;2022-08-21T03:03:54;15.80;99.90
9157;DHT22;4613;48.392;9.998;2022-08-21T03:06:25;16.10;99.90
9157;DHT22;4613;48.392;9.998;2022-08-21T03:08:56;15.80;99.90
9157;DHT22;4613;48.392;9.998;2022-08-21T03:11:28;15.90;99.90
9157;DHT22;4613;48.392;9.998;2022-08-21T03:13:59;16.00;99.90
9157;DHT22;4613;48.392;9.998;2022-08-21T03:16:30;16.10;99.90
9157;DHT22;4613;48.392;9.998;2022-08-21T03:19:01;16.00;99.90
9157;DHT22;4613;48.392;9.998;2022-08-21T03:21:33;15.90;99.90
9157;DHT22;4613;48.392;9.998;2022-08-21T03:24:04;15.80;99.90
9157;DHT22;4613;48.392;9.998;2022-08-21T03:26:35;16.10;99.90
9157;DHT22;4613;48.392;9.998;2022-08-21T03:29:06;15.90;99.90
9157;DHT22;4613;48.392;9.998;2022-08-21T03:31:38;15.70;99.90
9157;DHT22;4613;48.392;9.998;2022-08-21T03:34:08;16.10;99.90
9157;DHT22;4613;48.392;9.998;2022-08-21T03:36:39;16.20;99.90
9157;DHT22;4613;48.392;9.998;2022-08-21T03:39:10;16.10;99.90
9157;DHT22;4613;48.392;9.998;2022-08-21T03:41:41;15.60;99.90
9157;DHT22;4613;48.392;9.998;2022-08-21T03:44:13;15.10;99.90
9157;DHT22;4613;48.392;9.998;2022-08-21T03:46:44;15.80;99.90
9157;DHT22;4613;48.392;9.998;2022-08-21T03:49:15;15.70;99.90
9157;DHT22;4613;48.392;9.998;2022-08-21T03:51:46;15.70;99.90
9157;DHT22;4613;48.392;9.998;2022-08-21T03:54:17;15.90;99.90
9157;DHT22;4613;48.392;9.998;2022-08-21T03:56:48;15.80;99.90
9157;DHT22;4613;48.392;9.998;2022-08-21T03:59:20;16.30;99.90
9157;DHT22;4613;48.392;9.998;2022-08-21T04:02:00;16.10;99.90
9157;DHT22;4613;48.392;9.998;2022-08-21T04:04:32;16.50;99.90
9157;DHT22;4613;48.392;9.998;2022-08-21T04:07:04;16.50;99.90
9157;DHT22;4613;48.392;9.998;2022-08-21T04:09:34;15.70;99.90
9157;DHT22;4613;48.392;9.998;2022-08-21T04:12:06;15.10;99.90
9157;DHT22;4613;48.392;9.998;2022-08-21T04:14:37;15.20;99.90
9157;DHT22;4613;48.392;9.998;2022-08-21T04:17:08;15.40;99.90
9157;DHT22;4613;48.392;9.998;2022-08-21T04:19:39;15.70;99.90
9157;DHT22;4613;48.392;9.998;2022-08-21T04:22:10;15.50;99.90
9157;DHT22;4613;48.392;9.998;2022-08-21T04:24:41;15.50;99.90
9157;DHT22;4613;48.392;9.998;2022-08-21T04:27:12;15.50;99.90
9157;DHT22;4613;48.392;9.998;2022-08-21T04:29:43;15.40;99.90
9157;DHT22;4613;48.392;9.998;2022-08-21T04:32:24;15.30;99.90
9157;DHT22;4613;48.392;9.998;2022-08-21T04:35:00;14.80;99.90
9157;DHT22;4613;48.392;9.998;2022-08-21T04:37:31;15.10;99.90
9157;DHT22;4613;48.392;9.998;2022-08-21T04:40:03;15.20;99.90
9157;DHT22;4613;48.392;9.998;2022-08-21T04:42:42;15.20;99.90
9157;DHT22;4613;48.392;9.998;2022-08-21T04:45:33;15.70;99.90
9157;DHT22;4613;48.392;9.998;2022-08-21T04:48:07;15.50;99.90
9157;DHT22;4613;48.392;9.998;2022-08-21T04:56:26;14.90;99.90
9157;DHT22;4613;48.392;9.998;2022-08-21T04:59:00;13.90;99.90
9157;DHT22;4613;48.392;9.998;2022-08-21T05:01:35;14.30;99.90
9157;DHT22;4613;48.392;9.998;2022-08-21T05:04:08;14.60;99.90
9157;DHT22;4613;48.392;9.998;2022-08-21T05:06:41;15.40;99.90
9157;DHT22;4613;48.392;9.998;2022-08-21T05:09:16;15.40;99.90
9157;DHT22;4613;48.392;9.998;2022-08-21T05:11:48;15.20;99.90
9157;DHT22;4613;48.392;9.998;2022-08-21T05:14:19;15.60;99.90
9157;DHT22;4613;48.392;9.998;2022-08-21T05:16:50;15.60;99.90
9157;DHT22;4613;48.392;9.998;2022-08-21T05:19:22;16.00;99.90
9157;DHT22;4613;48.392;9.998;2022-08-21T05:21:54;15.60;99.90
9157;DHT22;4613;48.392;9.998;2022-08-21T05:24:28;14.90;99.90
9157;DHT22;4613;48.392;9.998;2022-08-21T05:26:59;14.90;99.90
9157;DHT22;4613;48.392;9.998;2022-08-21T05:29:30;15.50;99.90
9157;DHT22;4613;48.392;9.998;2022-08-21T05:32:08;15.40;99.90
9157;DHT22;4613;48.392;9.998;2022-08-21T05:34:41;14.80;99.90
9157;DHT22;4613;48.392;9.998;2022-08-21T05:37:12;14.90;99.90
9157;DHT22;4613;48.392;9.998;2022-08-21T05:39:43;15.20;99.90
9157;DHT22;4613;48.392;9.998;2022-08-21T05:42:14;15.20;99.90
9157;DHT22;4613;48.392;9.998;2022-08-21T05:44:45;14.90;99.90
9157;DHT22;4613;48.392;9.998;2022-08-21T05:47:16;14.90;99.90
9157;DHT22;4613;48.392;9.998;2022-08-21T05:49:47;15.00;99.90
9157;DHT22;4613;48.392;9.998;2022-08-21T05:52:20;15.40;99.90
9157;DHT22;4613;48.392;9.998;2022-08-21T05:54:51;16.00;99.90
9157;DHT22;4613;48.392;9.998;2022-08-21T05:57:24;16.10;99.90
9157;DHT22;4613;48.392;9.998;2022-08-21T05:59:55;15.80;99.90
9157;DHT22;4613;48.392;9.998;2022-08-21T06:02:26;15.80;99.90
9157;DHT22;4613;48.392;9.998;2022-08-21T06:04:57;15.50;99.90
9157;DHT22;4613;48.392;9.998;2022-08-21T06:07:28;15.90;99.90
9157;DHT22;4613;48.392;9.998;2022-08-21T06:09:59;16.30;99.90
9157;DHT22;4613;48.392;9.998;2022-08-21T06:12:30;16.30;99.90
9157;DHT22;4613;48.392;9.998;2022-08-21T06:15:01;15.90;99.90
9157;DHT22;4613;48.392;9.998;2022-08-21T06:17:32;16.20;99.90
9157;DHT22;4613;48.392;9.998;2022-08-21T06:20:03;16.30;99.90
9157;DHT22;4613;48.392;9.998;2022-08-21T06:22:34;15.80;99.90
9157;DHT22;4613;48.392;9.998;2022-08-21T06:25:06;16.40;99.90
9157;DHT22;4613;48.392;9.998;2022-08-21T06:27:37;16.40;99.90
9157;DHT22;4613;48.392;9.998;2022-08-21T06:30:08;16.60;99.90
9157;DHT22;4613;48.392;9.998;2022-08-21T06:32:39;17.00;99.90
9157;DHT22;4613;48.392;9.998;2022-08-21T06:35:10;17.30;99.90
9157;DHT22;4613;48.392;9.998;2022-08-21T06:37:41;17.60;99.90
9157;DHT22;4613;48.392;9.998;2022-08-21T06:40:12;17.70;99.90
9157;DHT22;4613;48.392;9.998;2022-08-21T06:42:43;17.90;99.90
9157;DHT22;4613;48.392;9.998;2022-08-21T06:45:14;17.80;99.90
9157;DHT22;4613;48.392;9.998;2022-08-21T06:47:45;18.20;99.90
9157;DHT22;4613;48.392;9.998;2022-08-21T06:50:16;18.40;99.90
9157;DHT22;4613;48.392;9.998;2022-08-21T06:52:47;18.50;99.90
9157;DHT22;4613;48.392;9.998;2022-08-21T06:55:18;18.50;99.90
9157;DHT22;4613;48.392;9.998;2022-08-21T06:57:49;18.90;99.90
9157;DHT22;4613;48.392;9.998;2022-08-21T07:00:20;18.60;99.90
9157;DHT22;4613;48.392;9.998;2022-08-21T07:02:51;19.00;99.90
9157;DHT22;4613;48.392;9.998;2022-08-21T07:05:22;19.00;99.90
9157;DHT22;4613;48.392;9.998;2022-08-21T07:07:55;19.00;99.90
9157;DHT22;4613;48.392;9.998;2022-08-21T07:10:27;18.90;99.90
9157;DHT22;4613;48.392;9.998;2022-08-21T07:12:58;18.90;99.90
9157;DHT22;4613;48.392;9.998;2022-08-21T07:15:29;19.10;99.90
9157;DHT22;4613;48.392;9.998;2022-08-21T07:18:01;19.00;99.90
9157;DHT22;4613;48.392;9.998;2022-08-21T07:20:32;18.90;99.90
9157;DHT22;4613;48.392;9.998;2022-08-21T07:23:06;19.00;99.90
9157;DHT22;4613;48.392;9.998;2022-08-21T07:25:38;19.30;99.90
9157;DHT22;4613;48.392;9.998;2022-08-21T07:28:09;19.70;99.90
9157;DHT22;4613;48.392;9.998;2022-08-21T07:30:41;20.00;99.90
9157;DHT22;4613;48.392;9.998;2022-08-21T07:33:12;19.30;99.90
9157;DHT22;4613;48.392;9.998;2022-08-21T07:35:43;19.50;99.90
9157;DHT22;4613;48.392;9.998;2022-08-21T07:38:14;19.20;99.90
9157;DHT22;4613;48.392;9.998;2022-08-21T07:40:46;19.30;99.90
9157;DHT22;4613;48.392;9.998;2022-08-21T07:46:05;19.60;99.90
9157;DHT22;4613;48.392;9.998;2022-08-21T07:48:36;20.30;99.90
9157;DHT22;4613;48.392;9.998;2022-08-21T07:51:11;20.80;99.90
9157;DHT22;4613;48.392;9.998;2022-08-21T07:53:48;20.60;99.90
9157;DHT22;4613;48.392;9.998;2022-08-21T07:56:20;20.70;99.90
9157;DHT22;4613;48.392;9.998;2022-08-21T07:58:52;20.70;99.90
9157;DHT22;4613;48.392;9.998;2022-08-21T08:01:23;20.90;99.90
9157;DHT22;4613;48.392;9.998;2022-08-21T08:03:55;21.40;99.90
9157;DHT22;4613;48.392;9.998;2022-08-21T08:06:26;21.20;99.90
9157;DHT22;4613;48.392;9.998;2022-08-21T08:08:57;21.10;99.90
9157;DHT22;4613;48.392;9.998;2022-08-21T08:11:28;21.30;99.90
9157;DHT22;4613;48.392;9.998;2022-08-21T08:13:59;21.20;99.90
9157;DHT22;4613;48.392;9.998;2022-08-21T08:16:30;21.30;99.90
9157;DHT22;4613;48.392;9.998;2022-08-21T08:19:01;21.40;99.90
9157;DHT22;4613;48.392;9.998;2022-08-21T08:21:32;21.60;99.90
9157;DHT22;4613;48.392;9.998;2022-08-21T08:24:04;21.70;99.90
9157;DHT22;4613;48.392;9.998;2022-08-21T08:26:35;21.80;99.90
9157;DHT22;4613;48.392;9.998;2022-08-21T08:29:06;21.80;99.90
9157;DHT22;4613;48.392;9.998;2022-08-21T08:31:37;21.90;99.90
9157;DHT22;4613;48.392;9.998;2022-08-21T08:34:07;21.90;99.90
9157;DHT22;4613;48.392;9.998;2022-08-21T08:36:38;22.00;99.90
9157;DHT22;4613;48.392;9.998;2022-08-21T08:39:10;22.20;99.90
9157;DHT22;4613;48.392;9.998;2022-08-21T08:41:43;22.30;99.90
9157;DHT22;4613;48.392;9.998;2022-08-21T08:44:15;21.90;99.90
9157;DHT22;4613;48.392;9.998;2022-08-21T08:46:48;22.10;99.90
9157;DHT22;4613;48.392;9.998;2022-08-21T08:49:30;22.50;99.90
9157;DHT22;4613;48.392;9.998;2022-08-21T08:52:07;22.70;99.90
9157;DHT22;4613;48.392;9.998;2022-08-21T08:54:45;23.00;99.90
9157;DHT22;4613;48.392;9.998;2022-08-21T08:57:22;23.20;99.90
9157;DHT22;4613;48.392;9.998;2022-08-21T08:59:56;23.60;99.90
9157;DHT22;4613;48.392;9.998;2022-08-21T09:02:28;23.60;99.90
9157;DHT22;4613;48.392;9.998;2022-08-21T09:05:00;23.40;99.90
9157;DHT22;4613;48.392;9.998;2022-08-21T09:11:28;23.20;99.90
9157;DHT22;4613;48.392;9.998;2022-08-21T09:16:53;23.60;99.90
9157;DHT22;4613;48.392;9.998;2022-08-21T09:19:40;23.70;99.90
9157;DHT22;4613;48.392;9.998;2022-08-21T09:22:19;23.90;99.90
9157;DHT22;4613;48.392;9.998;2022-08-21T09:27:38;24.20;99.90
9157;DHT22;4613;48.392;9.998;2022-08-21T09:30:11;24.40;99.90
9157;DHT22;4613;48.392;9.998;2022-08-21T09:32:42;24.00;99.90
9157;DHT22;4613;48.392;9.998;2022-08-21T09:35:18;24.10;99.90
9157;DHT22;4613;48.392;9.998;2022-08-21T09:37:59;24.30;99.90
9157;DHT22;4613;48.392;9.998;2022-08-21T09:45:41;24.90;99.90
9157;DHT22;4613;48.392;9.998;2022-08-21T09:48:22;25.00;99.90
9157;DHT22;4613;48.392;9.998;2022-08-21T09:50:53;24.50;99.90
9157;DHT22;4613;48.392;9.998;2022-08-21T09:53:41;23.70;99.90
9157;DHT22;4613;48.392;9.998;2022-08-21T09:59:24;23.80;99.90
9157;DHT22;4613;48.392;9.998;2022-08-21T10:01:58;23.70;99.90
9157;DHT22;4613;48.392;9.998;2022-08-21T10:04:35;23.40;99.90
9157;DHT22;4613;48.392;9.998;2022-08-21T10:07:12;23.20;99.90
9157;DHT22;4613;48.392;9.998;2022-08-21T10:09:43;23.20;99.90
9157;DHT22;4613;48.392;9.998;2022-08-21T10:12:21;23.00;99.90
9157;DHT22;4613;48.392;9.998;2022-08-21T10:20:11;23.00;99.90
9157;DHT22;4613;48.392;9.998;2022-08-21T10:23:02;23.00;99.90
9157;DHT22;4613;48.392;9.998;2022-08-21T10:25:52;23.10;99.90
9157;DHT22;4613;48.392;9.998;2022-08-21T10:28:36;23.10;99.90
9157;DHT22;4613;48.392;9.998;2022-08-21T10:31:37;23.00;99.90
9157;DHT22;4613;48.392;9.998;2022-08-21T10:40:37;23.30;99.90
9157;DHT22;4613;48.392;9.998;2022-08-21T10:46:29;23.90;99.90
9157;DHT22;4613;48.392;9.998;2022-08-21T10:49:26;23.50;99.90
9157;DHT22;4613;48.392;9.998;2022-08-21T10:55:04;23.60;99.90
9157;DHT22;4613;48.392;9.998;2022-08-21T11:00:22;23.90;99.90
9157;DHT22;4613;48.392;9.998;2022-08-21T11:03:01;24.20;99.90
9157;DHT22;4613;48.392;9.998;2022-08-21T11:05:43;24.20;99.90
9157;DHT22;4613;48.392;9.998;2022-08-21T11:08:35;23.80;99.90
9157;DHT22;4613;48.392;9.998;2022-08-21T11:11:35;24.00;99.90
9157;DHT22;4613;48.392;9.998;2022-08-21T11:14:32;24.30;99.90
9157;DHT22;4613;48.392;9.998;2022-08-21T11:17:12;24.50;99.90
9157;DHT22;4613;48.392;9.998;2022-08-21T11:25:47;24.50;99.90
9157;DHT22;4613;48.392;9.998;2022-08-21T11:28:36;24.50;99.90
9157;DHT22;4613;48.392;9.998;2022-08-21T11:31:32;24.50;99.90
9157;DHT22;4613;48.392;9.998;2022-08-21T11:34:22;24.70;99.90
9157;DHT22;4613;48.392;9.998;2022-08-21T11:37:11;24.60;99.90
9157;DHT22;4613;48.392;9.998;2022-08-21T11:39:58;24.50;99.90
9157;DHT22;4613;48.392;9.998;2022-08-21T11:50:27;24.80;99.90
9157;DHT22;4613;48.392;9.998;2022-08-21T11:53:05;24.70;99.90
9157;DHT22;4613;48.392;9.998;2022-08-21T11:55:52;24.80;99.90
9157;DHT22;4613;48.392;9.998;2022-08-21T11:58:32;25.10;99.90
9157;DHT22;4613;48.392;9.998;2022-08-21T12:01:12;24.60;99.90
9157;DHT22;4613;48.392;9.998;2022-08-21T12:04:06;24.60;99.90
9157;DHT22;4613;48.392;9.998;2022-08-21T12:06:41;24.80;99.90
9157;DHT22;4613;48.392;9.998;2022-08-21T12:12:21;24.60;99.90
9157;DHT22;4613;48.392;9.998;2022-08-21T12:15:12;24.50;99.90
9157;DHT22;4613;48.392;9.998;2022-08-21T12:18:20;24.50;99.90
9157;DHT22;4613;48.392;9.998;2022-08-21T12:21:17;24.40;99.90
9157;DHT22;4613;48.392;9.998;2022-08-21T12:26:47;24.40;99.90
9157;DHT22;4613;48.392;9.998;2022-08-21T12:29:33;24.20;99.90
9157;DHT22;4613;48.392;9.998;2022-08-21T12:35:02;24.40;99.90
9157;DHT22;4613;48.392;9.998;2022-08-21T12:37:43;24.80;99.90
9157;DHT22;4613;48.392;9.998;2022-08-21T12:40:31;24.90;99.90
9157;DHT22;4613;48.392;9.998;2022-08-21T12:43:14;25.00;99.90
9157;DHT22;4613;48.392;9.998;2022-08-21T12:45:48;25.30;99.90
9157;DHT22;4613;48.392;9.998;2022-08-21T12:48:38;25.10;99.90
9157;DHT22;4613;48.392;9.998;2022-08-21T12:51:16;24.50;99.40
9157;DHT22;4613;48.392;9.998;2022-08-21T12:53:54;24.30;99.50
9157;DHT22;4613;48.392;9.998;2022-08-21T12:56:31;24.30;99.90
9157;DHT22;4613;48.392;9.998;2022-08-21T12:59:07;24.50;99.90
9157;DHT22;4613;48.392;9.998;2022-08-21T13:01:45;24.90;99.90
9157;DHT22;4613;48.392;9.998;2022-08-21T13:04:36;24.90;99.90
9157;DHT22;4613;48.392;9.998;2022-08-21T13:07:12;24.70;99.90
9157;DHT22;4613;48.392;9.998;2022-08-21T13:09:53;24.40;99.90
9157;DHT22;4613;48.392;9.998;2022-08-21T13:12:25;24.40;99.90
9157;DHT22;4613;48.392;9.998;2022-08-21T13:15:00;24.10;99.90
9157;DHT22;4613;48.392;9.998;2022-08-21T13:17:38;24.10;99.90
9157;DHT22;4613;48.392;9.998;2022-08-21T13:22:49;24.10;99.90
9157;DHT22;4613;48.392;9.998;2022-08-21T13:25:26;24.10;99.90
9157;DHT22;4613;48.392;9.998;2022-08-21T13:30:43;24.00;99.90
9157;DHT22;4613;48.392;9.998;2022-08-21T13:33:17;24.00;99.90
9157;DHT22;4613;48.392;9.998;2022-08-21T13:36:07;23.90;99.90
9157;DHT22;4613;48.392;9.998;2022-08-21T13:38:41;23.90;99.90
9157;DHT22;4613;48.392;9.998;2022-08-21T13:44:19;23.90;99.90
9157;DHT22;4613;48.392;9.998;2022-08-21T13:46:50;24.10;99.70
9157;DHT22;4613;48.392;9.998;2022-08-21T13:49:29;24.10;99.50
9157;DHT22;4613;48.392;9.998;2022-08-21T13:52:01;24.20;99.60
9157;DHT22;4613;48.392;9.998;2022-08-21T13:54:38;24.10;99.60
9157;DHT22;4613;48.392;9.998;2022-08-21T13:57:31;24.20;99.60
9157;DHT22;4613;48.392;9.998;2022-08-21T14:00:18;24.30;99.20
9157;DHT22;4613;48.392;9.998;2022-08-21T14:02:50;24.20;99.30
9157;DHT22;4613;48.392;9.998;2022-08-21T14:05:29;24.30;99.50
9157;DHT22;4613;48.392;9.998;2022-08-21T14:08:05;24.40;99.20
9157;DHT22;4613;48.392;9.998;2022-08-21T14:10:48;24.30;99.00
9157;DHT22;4613;48.392;9.998;2022-08-21T14:13:27;24.40;98.70
9157;DHT22;4613;48.392;9.998;2022-08-21T14:16:00;24.50;98.90
9157;DHT22;4613;48.392;9.998;2022-08-21T14:18:50;24.50;98.50
9157;DHT22;4613;48.392;9.998;2022-08-21T14:21:39;24.60;98.20
9157;DHT22;4613;48.392;9.998;2022-08-21T14:27:03;24.70;98.00
9157;DHT22;4613;48.392;9.998;2022-08-21T14:29:39;24.70;97.90
9157;DHT22;4613;48.392;9.998;2022-08-21T14:32:18;24.50;97.90
9157;DHT22;4613;48.392;9.998;2022-08-21T14:34:50;24.50;98.30
9157;DHT22;4613;48.392;9.998;2022-08-21T14:37:22;24.60;97.90
9157;DHT22;4613;48.392;9.998;2022-08-21T14:39:53;24.80;98.20
9157;DHT22;4613;48.392;9.998;2022-08-21T14:42:25;24.90;97.90
9157;DHT22;4613;48.392;9.998;2022-08-21T14:45:00;24.90;97.60
9157;DHT22;4613;48.392;9.998;2022-08-21T14:47:31;25.00;97.60
9157;DHT22;4613;48.392;9.998;2022-08-21T14:50:03;24.90;97.30
9157;DHT22;4613;48.392;9.998;2022-08-21T14:52:34;24.80;97.40
9157;DHT22;4613;48.392;9.998;2022-08-21T14:55:06;24.90;97.70
9157;DHT22;4613;48.392;9.998;2022-08-21T14:57:37;25.00;97.90
9157;DHT22;4613;48.392;9.998;2022-08-21T15:00:11;25.00;98.10
9157;DHT22;4613;48.392;9.998;2022-08-21T15:02:43;25.00;97.50
9157;DHT22;4613;48.392;9.998;2022-08-21T15:05:16;25.00;97.70
9157;DHT22;4613;48.392;9.998;2022-08-21T15:07:47;25.00;97.50
9157;DHT22;4613;48.392;9.998;2022-08-21T15:10:18;24.90;97.40
9157;DHT22;4613;48.392;9.998;2022-08-21T15:12:49;24.90;97.60
9157;DHT22;4613;48.392;9.998;2022-08-21T15:15:20;25.10;97.90
9157;DHT22;4613;48.392;9.998;2022-08-21T15:17:51;24.90;97.80
9157;DHT22;4613;48.392;9.998;2022-08-21T15:20:22;24.70;98.20
9157;DHT22;4613;48.392;9.998;2022-08-21T15:22:53;24.50;98.00
9157;DHT22;4613;48.392;9.998;2022-08-21T15:25:25;24.30;98.10
9157;DHT22;4613;48.392;9.998;2022-08-21T15:27:56;24.30;97.70
9157;DHT22;4613;48.392;9.998;2022-08-21T15:30:30;24.60;97.60
9157;DHT22;4613;48.392;9.998;2022-08-21T15:33:01;24.70;97.10
9157;DHT22;4613;48.392;9.998;2022-08-21T15:35:32;24.60;96.90
9157;DHT22;4613;48.392;9.998;2022-08-21T15:38:03;24.40;96.90
9157;DHT22;4613;48.392;9.998;2022-08-21T15:40:36;24.30;96.90
9157;DHT22;4613;48.392;9.998;2022-08-21T15:43:10;24.30;97.20
9157;DHT22;4613;48.392;9.998;2022-08-21T15:45:42;24.30;97.70
9157;DHT22;4613;48.392;9.998;2022-08-21T15:48:13;24.20;97.50
9157;DHT22;4613;48.392;9.998;2022-08-21T15:50:45;24.20;99.90
9157;DHT22;4613;48.392;9.998;2022-08-21T15:53:16;24.20;98.30
9157;DHT22;4613;48.392;9.998;2022-08-21T15:55:49;24.20;98.30
9157;DHT22;4613;48.392;9.998;2022-08-21T15:58:21;24.10;98.50
9157;DHT22;4613;48.392;9.998;2022-08-21T16:00:53;24.10;98.20
9157;DHT22;4613;48.392;9.998;2022-08-21T16:03:24;24.00;98.60
9157;DHT22;4613;48.392;9.998;2022-08-21T16:05:56;24.30;97.90
9157;DHT22;4613;48.392;9.998;2022-08-21T16:08:27;24.30;98.30
9157;DHT22;4613;48.392;9.998;2022-08-21T16:11:00;24.40;98.10
9157;DHT22;4613;48.392;9.998;2022-08-21T16:13:36;24.40;98.00
9157;DHT22;4613;48.392;9.998;2022-08-21T16:16:17;24.30;98.30
9157;DHT22;4613;48.392;9.998;2022-08-21T16:18:50;24.30;98.50
9157;DHT22;4613;48.392;9.998;2022-08-21T16:21:22;24.10;98.70
9157;DHT22;4613;48.392;9.998;2022-08-21T16:23:56;24.10;98.90
9157;DHT22;4613;48.392;9.998;2022-08-21T16:26:28;23.90;99.00
9157;DHT22;4613;48.392;9.998;2022-08-21T16:29:00;23.80;98.90
9157;DHT22;4613;48.392;9.998;2022-08-21T16:31:33;24.00;99.20
9157;DHT22;4613;48.392;9.998;2022-08-21T16:34:04;24.00;99.10
9157;DHT22;4613;48.392;9.998;2022-08-21T16:36:35;24.00;99.20
9157;DHT22;4613;48.392;9.998;2022-08-21T16:39:06;23.90;99.40
9157;DHT22;4613;48.392;9.998;2022-08-21T16:41:37;23.90;99.20
9157;DHT22;4613;48.392;9.998;2022-08-21T16:44:10;23.90;99.60
9157;DHT22;4613;48.392;9.998;2022-08-21T16:46:42;23.90;99.30
9157;DHT22;4613;48.392;9.998;2022-08-21T16:49:16;23.90;99.80
9157;DHT22;4613;48.392;9.998;2022-08-21T16:51:47;24.00;99.30
9157;DHT22;4613;48.392;9.998;2022-08-21T16:54:18;23.90;99.80
9157;DHT22;4613;48.392;9.998;2022-08-21T16:56:50;23.90;99.90
9157;DHT22;4613;48.392;9.998;2022-08-21T16:59:21;23.90;99.70
9157;DHT22;4613;48.392;9.998;2022-08-21T17:01:53;23.90;99.90
9157;DHT22;4613;48.392;9.998;2022-08-21T17:04:24;23.90;99.90
9157;DHT22;4613;48.392;9.998;2022-08-21T17:06:57;23.90;99.70
9157;DHT22;4613;48.392;9.998;2022-08-21T17:09:28;23.80;99.60
9157;DHT22;4613;48.392;9.998;2022-08-21T17:11:59;23.90;99.40
9157;DHT22;4613;48.392;9.998;2022-08-21T17:14:30;23.80;99.00
9157;DHT22;4613;48.392;9.998;2022-08-21T17:17:02;23.80;98.80
9157;DHT22;4613;48.392;9.998;2022-08-21T17:19:34;23.90;99.10
9157;DHT22;4613;48.392;9.998;2022-08-21T17:22:06;23.80;98.60
9157;DHT22;4613;48.392;9.998;2022-08-21T17:24:37;23.80;99.60
9157;DHT22;4613;48.392;9.998;2022-08-21T17:27:09;23.80;99.00
9157;DHT22;4613;48.392;9.998;2022-08-21T17:29:42;23.80;99.30
9157;DHT22;4613;48.392;9.998;2022-08-21T17:32:13;23.80;98.80
9157;DHT22;4613;48.392;9.998;2022-08-21T17:34:45;23.80;98.50
9157;DHT22;4613;48.392;9.998;2022-08-21T17:37:17;23.80;98.70
9157;DHT22;4613;48.392;9.998;2022-08-21T17:39:48;23.80;99.00
9157;DHT22;4613;48.392;9.998;2022-08-21T17:42:20;23.70;99.10
9157;DHT22;4613;48.392;9.998;2022-08-21T17:44:52;23.70;99.30
9157;DHT22;4613;48.392;9.998;2022-08-21T17:47:27;23.70;98.80
9157;DHT22;4613;48.392;9.998;2022-08-21T17:49:58;23.70;99.50
9157;DHT22;4613;48.392;9.998;2022-08-21T17:52:29;23.70;99.40
9157;DHT22;4613;48.392;9.998;2022-08-21T17:55:00;23.70;99.30
9157;DHT22;4613;48.392;9.998;2022-08-21T17:57:34;23.60;99.20
9157;DHT22;4613;48.392;9.998;2022-08-21T18:00:08;23.50;98.90
9157;DHT22;4613;48.392;9.998;2022-08-21T18:02:47;23.60;99.20
9157;DHT22;4613;48.392;9.998;2022-08-21T18:05:21;23.50;99.70
9157;DHT22;4613;48.392;9.998;2022-08-21T18:07:52;23.40;99.90